Time;durP1;ratioP1;P1;durP2;ratioP2;P2;SDS_P1;SDS_P2;PMS_P1;PMS_P2;Temp;Humidity;BMP_temperature;BMP_pressure;BME280_temperature;BME280_humidity;BME280_pressure;Samples;Min_cycle;Max_cycle;Signal;HPM_P1;HPM_P2
2022/09/14 00:01:34;;;;;;;3.78;3.30;;;;;;;;;;5014957;28;20515;-83
2022/09/14 00:04:02;;;;;;;3.58;2.95;;;;;;;;;;5015049;28;20022;-84
2022/09/14 00:06:29;;;;;;;3.58;2.97;;;;;;;;;;5014755;28;20022;-84
2022/09/14 00:08:56;;;;;;;3.25;2.95;;;;;;;;;;5014983;28;20014;-84
2022/09/14 00:11:24;;;;;;;3.28;2.97;;;;;;;;;;5014737;28;20450;-82
2022/09/14 00:13:50;;;;;;;3.55;3.15;;;;;;;;;;5014915;28;20018;-83
2022/09/14 00:16:20;;;;;;;3.45;2.85;;;;;;;;;;5014829;28;20097;-85
2022/09/14 00:18:50;;;;;;;3.47;3.17;;;;;;;;;;5014782;28;20026;-82
2022/09/14 00:21:16;;;;;;;3.40;3.10;;;;;;;;;;5014660;28;20022;-84
2022/09/14 00:23:42;;;;;;;3.85;3.05;;;;;;;;;;5014732;28;20029;-81
2022/09/14 00:26:11;;;;;;;4.20;3.10;;;;;;;;;;5014712;28;20026;-82
2022/09/14 00:28:41;;;;;;;3.22;2.92;;;;;;;;;;5014513;28;20034;-83
2022/09/14 00:31:08;;;;;;;3.38;3.08;;;;;;;;;;5013110;28;20033;-83
2022/09/14 00:33:35;;;;;;;3.33;3.03;;;;;;;;;;5014134;28;20415;-85
2022/09/14 00:36:05;;;;;;;4.75;3.55;;;;;;;;;;5014317;28;20543;-82
2022/09/14 00:38:32;;;;;;;7.10;3.08;;;;;;;;;;5014246;28;20024;-81
2022/09/14 00:40:59;;;;;;;3.97;3.17;;;;;;;;;;5014288;28;20093;-81
2022/09/14 00:43:25;;;;;;;3.88;3.10;;;;;;;;;;5014121;28;20029;-84
2022/09/14 00:45:52;;;;;;;5.28;3.53;;;;;;;;;;5014077;28;20034;-84
2022/09/14 00:48:18;;;;;;;4.95;3.35;;;;;;;;;;5013995;28;20468;-82
2022/09/14 00:50:45;;;;;;;5.90;4.55;;;;;;;;;;5014150;28;20056;-86
2022/09/14 00:53:11;;;;;;;6.30;4.43;;;;;;;;;;5014058;28;20503;-81
2022/09/14 00:55:37;;;;;;;6.60;5.05;;;;;;;;;;5014004;28;20026;-82
2022/09/14 00:58:04;;;;;;;5.88;4.65;;;;;;;;;;5013995;28;20451;-84
2022/09/14 01:00:30;;;;;;;6.78;4.85;;;;;;;;;;5013810;28;20010;-84
2022/09/14 01:02:57;;;;;;;6.88;4.47;;;;;;;;;;5013961;28;20017;-86
2022/09/14 01:05:27;;;;;;;7.03;4.68;;;;;;;;;;4996241;28;20049;-82
2022/09/14 01:07:53;;;;;;;5.05;4.18;;;;;;;;;;5013861;28;20033;-84
2022/09/14 01:10:26;;;;;;;5.22;4.07;;;;;;;;;;5013696;28;20022;-85
2022/09/14 01:13:11;;;;;;;5.38;4.28;;;;;;;;;;5013736;28;20026;-84
2022/09/14 01:15:55;;;;;;;5.25;4.13;;;;;;;;;;5013773;28;20436;-85
2022/09/14 01:18:24;;;;;;;4.30;3.50;;;;;;;;;;5013652;28;20537;-82
2022/09/14 01:20:56;;;;;;;4.40;3.35;;;;;;;;;;5013350;28;20030;-81
2022/09/14 01:23:25;;;;;;;4.00;3.65;;;;;;;;;;5013659;28;20022;-81
2022/09/14 01:25:57;;;;;;;4.55;3.78;;;;;;;;;;5013325;28;20387;-82
2022/09/14 01:28:47;;;;;;;4.07;3.00;;;;;;;;;;5013553;28;20362;-82
2022/09/14 01:31:16;;;;;;;4.28;3.85;;;;;;;;;;5005836;28;20041;-84
2022/09/14 01:33:45;;;;;;;4.50;3.38;;;;;;;;;;5013248;28;20107;-81
2022/09/14 01:36:14;;;;;;;4.43;3.85;;;;;;;;;;5012036;28;20022;-83
2022/09/14 01:38:43;;;;;;;6.05;3.83;;;;;;;;;;5013377;28;20026;-84
2022/09/14 01:41:10;;;;;;;4.63;3.35;;;;;;;;;;5011879;28;20018;-84
2022/09/14 01:43:43;;;;;;;3.45;3.13;;;;;;;;;;5013250;28;20033;-82
2022/09/14 01:46:14;;;;;;;4.78;3.90;;;;;;;;;;5014172;28;20104;-81
2022/09/14 01:49:00;;;;;;;3.75;3.28;;;;;;;;;;5023239;28;20028;-83
2022/09/14 01:51:30;;;;;;;5.28;3.70;;;;;;;;;;5020563;28;20092;-83
2022/09/14 01:54:31;;;;;;;4.72;4.10;;;;;;;;;;5015890;28;20018;-83
2022/09/14 01:57:00;;;;;;;4.55;3.80;;;;;;;;;;4933498;29;20043;-83
2022/09/14 01:59:28;;;;;;;5.25;3.85;;;;;;;;;;4933416;29;20119;-82
2022/09/14 02:01:54;;;;;;;4.93;4.15;;;;;;;;;;4933358;29;20107;-83
2022/09/14 02:04:24;;;;;;;5.80;4.40;;;;;;;;;;4947360;28;20041;-81
2022/09/14 02:06:50;;;;;;;6.72;5.05;;;;;;;;;;5012814;28;20473;-83
2022/09/14 02:09:20;;;;;;;5.78;4.78;;;;;;;;;;5012726;28;20034;-85
2022/09/14 02:11:46;;;;;;;5.40;4.57;;;;;;;;;;5012913;28;20026;-81
2022/09/14 02:14:12;;;;;;;9.77;6.18;;;;;;;;;;5012731;28;20076;-81
2022/09/14 02:16:42;;;;;;;8.57;5.78;;;;;;;;;;5012817;28;20033;-81
2022/09/14 02:19:08;;;;;;;7.45;5.30;;;;;;;;;;5012710;28;20021;-83
2022/09/14 02:21:34;;;;;;;9.00;4.82;;;;;;;;;;5012800;28;20032;-81
2022/09/14 02:24:01;;;;;;;7.72;5.00;;;;;;;;;;5012768;28;20022;-82
2022/09/14 02:26:27;;;;;;;7.03;5.47;;;;;;;;;;5012515;28;20026;-82
2022/09/14 02:28:54;;;;;;;7.53;5.47;;;;;;;;;;5012821;28;20061;-84
2022/09/14 02:31:34;;;;;;;7.97;5.38;;;;;;;;;;5012516;28;20018;-84
2022/09/14 02:34:07;;;;;;;7.93;6.18;;;;;;;;;;5012429;28;20060;-82
2022/09/14 02:36:39;;;;;;;6.32;5.05;;;;;;;;;;5012740;28;20389;-82
2022/09/14 02:39:21;;;;;;;6.88;5.22;;;;;;;;;;5012459;28;20540;-82
2022/09/14 02:41:55;;;;;;;6.57;4.45;;;;;;;;;;5012494;28;20117;-82
2022/09/14 02:44:27;;;;;;;5.72;4.47;;;;;;;;;;5012653;28;20022;-84
2022/09/14 02:46:56;;;;;;;5.07;4.57;;;;;;;;;;5012402;28;20034;-82
2022/09/14 02:49:41;;;;;;;6.63;5.03;;;;;;;;;;5012651;28;20022;-82
2022/09/14 02:52:19;;;;;;;4.93;4.45;;;;;;;;;;5012489;28;20026;-85
2022/09/14 02:54:45;;;;;;;5.28;4.35;;;;;;;;;;5012527;28;20029;-82
2022/09/14 02:57:11;;;;;;;6.78;4.18;;;;;;;;;;5012302;28;20030;-81
2022/09/14 02:59:37;;;;;;;7.18;5.03;;;;;;;;;;5012501;28;20100;-86
2022/09/14 03:02:03;;;;;;;7.10;5.60;;;;;;;;;;5015593;28;20523;-85
2022/09/14 03:04:29;;;;;;;5.57;4.95;;;;;;;;;;5015989;28;20104;-84
2022/09/14 03:06:55;;;;;;;6.28;4.32;;;;;;;;;;5016095;28;20424;-81
2022/09/14 03:09:21;;;;;;;5.72;4.28;;;;;;;;;;5015913;28;20022;-81
2022/09/14 03:11:48;;;;;;;5.53;4.70;;;;;;;;;;5016132;28;20516;-85
2022/09/14 03:14:14;;;;;;;8.98;5.25;;;;;;;;;;5014690;28;20022;-83
2022/09/14 03:16:40;;;;;;;6.03;4.80;;;;;;;;;;5015954;28;20022;-82
2022/09/14 03:19:06;;;;;;;8.60;4.90;;;;;;;;;;5015929;28;20079;-85
2022/09/14 03:21:32;;;;;;;30.75;21.35;;;;;;;;;;5015771;28;20493;-84
2022/09/14 03:23:58;;;;;;;23.17;17.17;;;;;;;;;;5015821;28;20378;-82
2022/09/14 03:26:26;;;;;;;101.20;58.33;;;;;;;;;;5015542;28;20026;-82
2022/09/14 03:29:11;;;;;;;10.52;6.82;;;;;;;;;;5014562;28;20124;-82
2022/09/14 03:31:37;;;;;;;6.00;4.72;;;;;;;;;;5014486;28;20034;-82
2022/09/14 03:34:03;;;;;;;7.15;5.90;;;;;;;;;;5015399;28;20137;-85
2022/09/14 03:36:30;;;;;;;7.30;5.40;;;;;;;;;;5015498;28;20080;-81
2022/09/14 03:38:57;;;;;;;6.05;4.40;;;;;;;;;;5015618;28;20033;-84
2022/09/14 03:41:24;;;;;;;29.08;21.38;;;;;;;;;;5015361;28;20018;-83
2022/09/14 03:43:50;;;;;;;8.23;6.05;;;;;;;;;;5015662;28;20052;-82
2022/09/14 03:46:17;;;;;;;7.88;5.60;;;;;;;;;;5015143;28;20124;-84
2022/09/14 03:48:44;;;;;;;5.38;4.65;;;;;;;;;;5015135;28;20093;-82
2022/09/14 03:51:11;;;;;;;7.07;4.50;;;;;;;;;;5015125;28;20097;-86
2022/09/14 03:53:37;;;;;;;7.47;5.05;;;;;;;;;;5015273;28;20064;-83
2022/09/14 03:56:22;;;;;;;9.13;5.72;;;;;;;;;;5015131;28;20033;-81
2022/09/14 03:58:49;;;;;;;5.60;4.50;;;;;;;;;;5015226;28;20022;-84
2022/09/14 04:01:16;;;;;;;11.50;6.70;;;;;;;;;;5014882;28;20030;-84
2022/09/14 04:03:43;;;;;;;8.82;5.28;;;;;;;;;;5014969;28;20022;-81
2022/09/14 04:06:09;;;;;;;6.82;5.35;;;;;;;;;;5014786;28;20030;-86
2022/09/14 04:08:36;;;;;;;8.93;5.70;;;;;;;;;;5014865;28;20024;-86
2022/09/14 04:11:07;;;;;;;7.10;5.38;;;;;;;;;;5014426;28;20536;-81
2022/09/14 04:13:33;;;;;;;9.23;5.47;;;;;;;;;;5014641;28;20030;-83
2022/09/14 04:15:59;;;;;;;7.15;5.30;;;;;;;;;;5014421;28;20034;-82
2022/09/14 04:18:26;;;;;;;9.27;5.57;;;;;;;;;;5014684;28;20029;-83
2022/09/14 04:21:11;;;;;;;8.00;5.50;;;;;;;;;;5014621;28;20393;-81
2022/09/14 04:23:37;;;;;;;8.70;5.13;;;;;;;;;;5014521;28;20022;-81
2022/09/14 04:26:09;;;;;;;7.35;5.60;;;;;;;;;;5014561;28;20033;-81
2022/09/14 04:28:35;;;;;;;9.45;6.05;;;;;;;;;;5014479;28;20029;-80
2022/09/14 04:31:01;;;;;;;7.55;5.72;;;;;;;;;;5014460;28;20481;-82
2022/09/14 04:33:32;;;;;;;7.57;4.78;;;;;;;;;;5014139;28;20018;-81
2022/09/14 04:36:03;;;;;;;10.38;6.82;;;;;;;;;;5014323;28;20064;-81
2022/09/14 04:38:29;;;;;;;21.33;17.40;;;;;;;;;;5014297;28;20026;-81
2022/09/14 04:40:56;;;;;;;10.73;6.40;;;;;;;;;;5014136;28;20037;-81
2022/09/14 04:43:24;;;;;;;7.57;5.88;;;;;;;;;;5014147;28;20022;-81
2022/09/14 04:45:50;;;;;;;7.18;4.63;;;;;;;;;;5013998;28;20088;-81
2022/09/14 04:48:16;;;;;;;6.78;6.18;;;;;;;;;;5014101;28;20045;-81
2022/09/14 04:50:43;;;;;;;6.97;5.43;;;;;;;;;;5013974;28;20030;-83
2022/09/14 04:53:13;;;;;;;8.68;5.03;;;;;;;;;;5013749;28;20029;-81
2022/09/14 04:55:39;;;;;;;7.88;5.30;;;;;;;;;;5032718;28;20088;-80
2022/09/14 04:58:05;;;;;;;8.07;4.90;;;;;;;;;;5033801;28;20097;-81
2022/09/14 05:00:34;;;;;;;6.57;5.00;;;;;;;;;;5033431;28;20025;-81
2022/09/14 05:03:00;;;;;;;6.32;4.55;;;;;;;;;;5033590;28;20022;-81
2022/09/14 05:05:26;;;;;;;5.20;4.25;;;;;;;;;;5033622;28;20080;-81
2022/09/14 05:07:53;;;;;;;7.18;4.60;;;;;;;;;;5033368;28;20057;-82
2022/09/14 05:10:19;;;;;;;5.57;4.75;;;;;;;;;;5033439;28;20503;-81
2022/09/14 05:12:45;;;;;;;5.15;4.63;;;;;;;;;;5033310;28;20064;-81
2022/09/14 05:15:13;;;;;;;11.40;4.22;;;;;;;;;;5033343;28;20472;-81
2022/09/14 05:17:39;;;;;;;5.80;4.63;;;;;;;;;;5033244;28;20029;-81
2022/09/14 05:20:06;;;;;;;6.95;4.88;;;;;;;;;;5033366;28;20444;-81
2022/09/14 05:22:32;;;;;;;7.40;4.45;;;;;;;;;;5033247;28;20057;-82
2022/09/14 05:24:58;;;;;;;6.30;4.60;;;;;;;;;;5032129;28;20353;-81
2022/09/14 05:27:24;;;;;;;3.95;3.55;;;;;;;;;;5018352;28;20076;-81
2022/09/14 05:29:50;;;;;;;4.65;4.13;;;;;;;;;;5010818;28;20053;-81
2022/09/14 05:32:16;;;;;;;5.30;4.38;;;;;;;;;;5011958;28;20060;-83
2022/09/14 05:34:42;;;;;;;8.75;5.20;;;;;;;;;;5009897;28;20053;-79
2022/09/14 05:37:11;;;;;;;4.47;4.07;;;;;;;;;;5003814;28;20056;-79
2022/09/14 05:39:37;;;;;;;5.68;4.50;;;;;;;;;;5007822;28;20293;-81
2022/09/14 05:42:03;;;;;;;4.57;4.07;;;;;;;;;;5010934;28;20061;-79
2022/09/14 05:44:29;;;;;;;11.68;4.15;;;;;;;;;;5015366;28;20103;-79
2022/09/14 05:46:55;;;;;;;14.77;6.28;;;;;;;;;;5027186;28;20105;-77
2022/09/14 05:49:24;;;;;;;12.85;9.63;;;;;;;;;;5031111;28;20024;-77
2022/09/14 05:51:50;;;;;;;15.50;7.28;;;;;;;;;;5031260;28;20017;-79
2022/09/14 05:54:16;;;;;;;11.73;9.13;;;;;;;;;;5031379;28;20412;-78
2022/09/14 05:56:42;;;;;;;13.00;8.60;;;;;;;;;;5011721;28;20122;-77
2022/09/14 05:59:09;;;;;;;10.57;7.28;;;;;;;;;;5011452;28;20396;-78
2022/09/14 06:01:35;;;;;;;12.55;7.43;;;;;;;;;;5011844;28;20109;-80
2022/09/14 06:04:01;;;;;;;9.20;6.63;;;;;;;;;;5011406;28;20034;-79
2022/09/14 06:06:28;;;;;;;7.43;5.97;;;;;;;;;;5010622;28;20029;-78
2022/09/14 06:08:55;;;;;;;8.32;5.70;;;;;;;;;;5011446;28;20579;-78
2022/09/14 06:11:27;;;;;;;5.93;4.80;;;;;;;;;;5011497;28;20109;-79
2022/09/14 06:13:53;;;;;;;8.07;4.88;;;;;;;;;;4995101;28;20565;-79
2022/09/14 06:16:20;;;;;;;7.95;5.10;;;;;;;;;;5010657;28;20037;-78
2022/09/14 06:18:47;;;;;;;10.77;5.85;;;;;;;;;;5010969;28;20022;-78
2022/09/14 06:21:15;;;;;;;8.40;5.28;;;;;;;;;;5011265;28;20056;-77
2022/09/14 06:23:41;;;;;;;8.80;5.50;;;;;;;;;;5010814;28;20026;-81
2022/09/14 06:26:08;;;;;;;6.75;5.63;;;;;;;;;;5010728;28;20037;-83
2022/09/14 06:28:34;;;;;;;7.00;5.10;;;;;;;;;;5004688;28;20037;-79
2022/09/14 06:31:06;;;;;;;7.05;4.97;;;;;;;;;;4990314;28;20030;-80
2022/09/14 06:33:32;;;;;;;5.40;4.68;;;;;;;;;;4990452;28;20062;-84
2022/09/14 06:35:58;;;;;;;7.80;5.10;;;;;;;;;;4995053;28;20433;-80
2022/09/14 06:38:25;;;;;;;6.30;4.93;;;;;;;;;;4995676;28;20389;-81
2022/09/14 06:40:52;;;;;;;7.13;4.88;;;;;;;;;;4995593;28;20046;-81
2022/09/14 06:43:18;;;;;;;14.15;9.85;;;;;;;;;;5007726;28;20048;-81
2022/09/14 06:45:44;;;;;;;28.02;21.30;;;;;;;;;;5030982;28;20075;-81
2022/09/14 06:48:10;;;;;;;23.95;16.25;;;;;;;;;;5034651;28;20028;-81
2022/09/14 06:50:36;;;;;;;8.85;6.97;;;;;;;;;;5029773;28;20481;-82
2022/09/14 06:53:02;;;;;;;6.38;5.53;;;;;;;;;;4996807;28;20034;-83
2022/09/14 06:55:29;;;;;;;5.80;5.20;;;;;;;;;;4998286;28;20106;-84
2022/09/14 06:57:55;;;;;;;9.70;8.30;;;;;;;;;;4995194;28;20081;-82
2022/09/14 07:00:21;;;;;;;17.15;15.38;;;;;;;;;;4995307;28;20034;-84
2022/09/14 07:02:48;;;;;;;11.82;9.63;;;;;;;;;;5004542;28;20030;-81
2022/09/14 07:05:19;;;;;;;11.90;8.60;;;;;;;;;;5015654;28;20033;-82
2022/09/14 07:07:47;;;;;;;9.57;8.38;;;;;;;;;;5023346;28;20527;-82
2022/09/14 07:10:14;;;;;;;7.95;6.47;;;;;;;;;;5010176;28;20457;-85
2022/09/14 07:12:40;;;;;;;6.85;5.13;;;;;;;;;;5010917;28;20033;-81
2022/09/14 07:15:06;;;;;;;5.45;4.85;;;;;;;;;;5022918;28;20049;-82
2022/09/14 07:17:35;;;;;;;7.03;4.53;;;;;;;;;;5024669;28;20380;-82
2022/09/14 07:20:02;;;;;;;5.35;4.82;;;;;;;;;;5024860;28;20511;-82
2022/09/14 07:22:28;;;;;;;5.50;4.75;;;;;;;;;;5014648;28;20103;-82
2022/09/14 07:24:54;;;;;;;8.15;5.60;;;;;;;;;;5014410;28;20551;-82
2022/09/14 07:27:37;;;;;;;;;;;;;;;;;;;;;
2022/09/14 07:30:06;;;;;;;7.22;4.25;;;;;;;;;;5015505;28;20060;-87
2022/09/14 07:32:32;;;;;;;7.53;4.70;;;;;;;;;;5014354;28;20477;-85
2022/09/14 07:34:58;;;;;;;5.38;4.72;;;;;;;;;;5013889;28;20081;-82
2022/09/14 07:37:24;;;;;;;5.68;3.58;;;;;;;;;;5014369;28;20026;-81
2022/09/14 07:39:50;;;;;;;16.40;12.23;;;;;;;;;;5013412;28;20061;-80
2022/09/14 07:42:16;;;;;;;18.38;14.55;;;;;;;;;;5013766;28;20030;-80
2022/09/14 07:44:42;;;;;;;8.55;6.32;;;;;;;;;;5021617;28;20048;-84
2022/09/14 07:47:08;;;;;;;13.35;7.45;;;;;;;;;;5020056;28;20022;-81
2022/09/14 07:49:34;;;;;;;52.42;27.15;;;;;;;;;;5011654;28;20450;-83
2022/09/14 07:52:02;;;;;;;51.85;25.48;;;;;;;;;;5013372;28;20022;-83
2022/09/14 07:54:28;;;;;;;64.45;28.30;;;;;;;;;;5012393;28;20022;-80
2022/09/14 07:56:55;;;;;;;102.43;41.13;;;;;;;;;;5006967;28;20034;-79
2022/09/14 07:59:21;;;;;;;80.00;33.20;;;;;;;;;;5000704;28;20443;-81
2022/09/14 08:01:48;;;;;;;65.35;27.92;;;;;;;;;;5008315;28;20021;-80
2022/09/14 08:04:14;;;;;;;35.90;14.73;;;;;;;;;;5011742;28;20467;-83
2022/09/14 08:06:41;;;;;;;29.73;13.15;;;;;;;;;;5013252;28;20044;-80
2022/09/14 08:09:07;;;;;;;19.95;10.20;;;;;;;;;;5013782;28;20532;-80
2022/09/14 08:11:34;;;;;;;14.55;7.60;;;;;;;;;;5008822;28;20069;-81
2022/09/14 08:14:11;;;;;;;13.45;6.90;;;;;;;;;;4992871;28;20026;-83
2022/09/14 08:16:37;;;;;;;22.95;8.93;;;;;;;;;;4994005;28;20756;-80
2022/09/14 08:19:05;;;;;;;13.98;6.93;;;;;;;;;;4993490;28;20030;-81
2022/09/14 08:21:32;;;;;;;8.25;5.32;;;;;;;;;;5009964;28;20037;-80
2022/09/14 08:24:01;;;;;;;9.25;5.10;;;;;;;;;;4995902;28;20022;-80
2022/09/14 08:26:27;;;;;;;10.77;6.13;;;;;;;;;;5012573;28;20069;-79
2022/09/14 08:28:54;;;;;;;9.60;5.07;;;;;;;;;;5012530;28;20092;-80
2022/09/14 08:31:21;;;;;;;6.18;4.63;;;;;;;;;;5012526;28;20665;-80
2022/09/14 08:33:53;;;;;;;7.20;3.70;;;;;;;;;;5005575;28;20046;-81
2022/09/14 08:36:20;;;;;;;5.93;4.03;;;;;;;;;;5013002;28;20037;-80
2022/09/14 08:38:49;;;;;;;6.65;3.92;;;;;;;;;;5011976;28;20505;-79
2022/09/14 08:41:15;;;;;;;4.25;3.40;;;;;;;;;;4996188;28;20030;-80
2022/09/14 08:43:41;;;;;;;4.82;3.15;;;;;;;;;;5013245;28;20093;-79
2022/09/14 08:46:28;;;;;;;4.75;3.40;;;;;;;;;;5019601;28;20508;-80
2022/09/14 08:48:58;;;;;;;5.40;3.15;;;;;;;;;;5009678;28;20108;-80
2022/09/14 08:51:24;;;;;;;4.28;3.17;;;;;;;;;;5013223;28;20033;-81
2022/09/14 08:53:51;;;;;;;30.52;26.48;;;;;;;;;;5012042;28;20028;-80
2022/09/14 08:56:21;;;;;;;9.43;7.03;;;;;;;;;;5022845;28;20155;-83
2022/09/14 08:58:53;;;;;;;4.72;4.03;;;;;;;;;;5019430;28;20132;-84
2022/09/14 09:01:38;;;;;;;3.05;2.63;;;;;;;;;;5020666;28;20109;-82
2022/09/14 09:04:10;;;;;;;3.50;2.50;;;;;;;;;;5022564;28;20068;-82
2022/09/14 09:06:36;;;;;;;5.30;3.65;;;;;;;;;;5007933;28;20038;-84
2022/09/14 09:09:07;;;;;;;7.35;4.57;;;;;;;;;;5010642;28;20045;-83
2022/09/14 09:11:40;;;;;;;2.97;2.55;;;;;;;;;;5012018;28;20026;-83
2022/09/14 09:14:12;;;;;;;9.30;5.22;;;;;;;;;;5012501;28;20107;-83
2022/09/14 09:16:38;;;;;;;4.90;3.70;;;;;;;;;;5012717;28;20489;-82
2022/09/14 09:19:06;;;;;;;5.40;3.80;;;;;;;;;;5006041;28;20030;-81
2022/09/14 09:21:38;;;;;;;3.83;3.15;;;;;;;;;;5009990;28;20485;-80
2022/09/14 09:24:28;;;;;;;5.75;3.08;;;;;;;;;;5009756;28;20044;-81
2022/09/14 09:26:54;;;;;;;2.97;2.63;;;;;;;;;;5003687;28;20053;-83
2022/09/14 09:29:20;;;;;;;2.65;2.28;;;;;;;;;;5011540;28;20026;-81
2022/09/14 09:31:50;;;;;;;6.13;3.75;;;;;;;;;;5012416;28;20169;-86
2022/09/14 09:34:17;;;;;;;8.05;5.72;;;;;;;;;;5011968;28;20062;-87
2022/09/14 09:36:46;;;;;;;3.58;2.70;;;;;;;;;;5012123;28;20097;-86
2022/09/14 09:39:13;;;;;;;5.38;3.33;;;;;;;;;;5011346;28;20821;-73
2022/09/14 09:41:58;;;;;;;4.78;3.13;;;;;;;;;;5010595;28;20108;-84
2022/09/14 09:44:24;;;;;;;4.85;3.30;;;;;;;;;;5010810;28;20025;-86
2022/09/14 09:46:58;;;;;;;4.05;2.83;;;;;;;;;;5006295;28;20030;-85
2022/09/14 09:49:24;;;;;;;;;;;;;;;;;;5012328;28;20074;-83
2022/09/14 09:51:51;;;;;;;3.80;2.47;;;;;;;;;;5011866;28;20411;-83
2022/09/14 09:54:35;;;;;;;4.45;3.00;;;;;;;;;;5011600;28;20104;-80
2022/09/14 09:57:03;;;;;;;2.45;2.25;;;;;;;;;;5009258;28;20068;-82
2022/09/14 09:59:41;;;;;;;3.22;1.98;;;;;;;;;;4992078;28;20038;-83
2022/09/14 10:02:19;;;;;;;4.13;2.30;;;;;;;;;;4997378;28;20099;-85
2022/09/14 10:05:06;;;;;;;4.32;3.13;;;;;;;;;;5006666;28;20061;-83
2022/09/14 10:07:34;;;;;;;4.45;2.65;;;;;;;;;;5027669;28;20025;-85
2022/09/14 10:10:05;;;;;;;3.35;3.03;;;;;;;;;;5018566;28;20503;-83
2022/09/14 10:12:32;;;;;;;5.43;3.20;;;;;;;;;;5013010;28;20465;-86
2022/09/14 10:15:04;;;;;;;3.35;2.60;;;;;;;;;;5010571;28;20033;-82
2022/09/14 10:17:30;;;;;;;3.30;2.50;;;;;;;;;;5011962;28;20030;-85
2022/09/14 10:19:57;;;;;;;5.90;2.78;;;;;;;;;;5011055;28;20030;-81
2022/09/14 10:22:31;;;;;;;3.42;2.30;;;;;;;;;;5010603;28;20034;-80
2022/09/14 10:24:57;;;;;;;3.08;2.78;;;;;;;;;;5006060;28;20038;-77
2022/09/14 10:27:31;;;;;;;4.30;2.80;;;;;;;;;;5010158;28;20384;-77
2022/09/14 10:29:58;;;;;;;3.10;2.80;;;;;;;;;;5006652;28;20034;-79
2022/09/14 10:32:25;;;;;;;4.43;3.25;;;;;;;;;;5012413;28;20033;-79
2022/09/14 10:34:51;;;;;;;4.90;3.38;;;;;;;;;;5017119;28;20128;-78
2022/09/14 10:37:28;;;;;;;4.40;3.10;;;;;;;;;;5011825;28;20107;-79
2022/09/14 10:40:09;;;;;;;3.78;2.13;;;;;;;;;;5010538;28;20048;-80
2022/09/14 10:42:49;;;;;;;4.22;3.67;;;;;;;;;;5011624;28;20362;-79
2022/09/14 10:45:22;;;;;;;4.03;2.40;;;;;;;;;;5023500;28;20074;-78
2022/09/14 10:47:48;;;;;;;4.57;4.17;;;;;;;;;;5031394;28;20029;-78
2022/09/14 10:50:20;;;;;;;6.72;4.95;;;;;;;;;;5030809;28;20025;-77
2022/09/14 10:53:05;;;;;;;3.60;3.03;;;;;;;;;;5031542;28;20026;-77
2022/09/14 10:55:33;;;;;;;10.63;9.52;;;;;;;;;;5031397;28;20025;-78
2022/09/14 10:58:02;;;;;;;13.32;11.93;;;;;;;;;;5025417;28;20029;-79
2022/09/14 11:00:30;;;;;;;12.45;9.93;;;;;;;;;;4995605;28;20111;-79
2022/09/14 11:03:15;;;;;;;8.73;6.13;;;;;;;;;;5011685;28;20102;-78
2022/09/14 11:05:48;;;;;;;9.85;8.18;;;;;;;;;;5014193;28;20104;-78
2022/09/14 11:08:21;;;;;;;17.63;8.90;;;;;;;;;;5019614;28;20044;-78
2022/09/14 11:11:12;;;;;;;4.85;3.05;;;;;;;;;;5016412;28;20425;-81
2022/09/14 11:13:39;;;;;;;15.65;6.70;;;;;;;;;;4991540;28;20093;-80
2022/09/14 11:16:05;;;;;;;3.97;2.83;;;;;;;;;;5009510;28;20867;-80
2022/09/14 11:18:34;;;;;;;26.60;10.80;;;;;;;;;;5006723;28;20042;-82
2022/09/14 11:21:09;;;;;;;9.00;4.78;;;;;;;;;;5007979;28;20488;-80
2022/09/14 11:23:53;;;;;;;7.55;4.35;;;;;;;;;;5010670;28;20034;-80
2022/09/14 11:26:19;;;;;;;;;;;;;;;;;;5012582;28;20026;-80
2022/09/14 11:28:58;;;;;;;4.22;2.88;;;;;;;;;;5014381;28;20335;-79
2022/09/14 11:31:44;;;;;;;3.92;2.10;;;;;;;;;;4995951;28;20030;-80
2022/09/14 11:34:17;;;;;;;4.50;2.15;;;;;;;;;;5014227;28;20064;-80
2022/09/14 11:36:46;;;;;;;5.97;3.35;;;;;;;;;;5013804;28;20634;-79
2022/09/14 11:39:19;;;;;;;5.95;2.60;;;;;;;;;;5003724;28;20029;-79
2022/09/14 11:42:07;;;;;;;4.00;1.97;;;;;;;;;;5019294;28;20032;-79
2022/09/14 11:44:33;;;;;;;3.03;2.22;;;;;;;;;;5017273;28;20030;-79
2022/09/14 11:47:18;;;;;;;3.63;2.58;;;;;;;;;;5019696;28;20057;-81
2022/09/14 11:49:54;;;;;;;4.30;2.35;;;;;;;;;;5020987;28;20101;-79
2022/09/14 11:52:20;;;;;;;2.90;1.63;;;;;;;;;;5019443;28;20074;-78
2022/09/14 11:54:47;;;;;;;5.70;3.25;;;;;;;;;;5024316;28;20064;-78
2022/09/14 11:57:21;;;;;;;3.10;1.85;;;;;;;;;;5016769;28;20507;-78
2022/09/14 12:00:06;;;;;;;2.90;2.20;;;;;;;;;;5022224;28;20550;-79
2022/09/14 12:02:34;;;;;;;3.20;2.22;;;;;;;;;;5017491;28;20396;-79
2022/09/14 12:05:06;;;;;;;2.70;1.88;;;;;;;;;;5014209;28;20381;-78
2022/09/14 12:07:35;;;;;;;6.07;1.63;;;;;;;;;;5013736;28;20062;-79
2022/09/14 12:10:20;;;;;;;2.83;1.98;;;;;;;;;;5016389;28;20022;-79
2022/09/14 12:12:46;;;;;;;3.33;2.35;;;;;;;;;;5010547;28;20100;-79
2022/09/14 12:15:15;;;;;;;2.65;1.83;;;;;;;;;;5010773;28;20026;-79
2022/09/14 12:17:41;;;;;;;2.47;2.00;;;;;;;;;;5013960;28;20025;-81
2022/09/14 12:20:24;;;;;;;2.10;1.70;;;;;;;;;;5016996;28;20022;-80
2022/09/14 12:22:50;;;;;;;2.80;1.30;;;;;;;;;;5024239;28;20753;-80
2022/09/14 12:25:17;;;;;;;3.90;2.20;;;;;;;;;;5021372;28;20084;-81
2022/09/14 12:27:44;;;;;;;3.20;1.60;;;;;;;;;;5022185;28;20037;-80
2022/09/14 12:30:29;;;;;;;1.80;1.55;;;;;;;;;;5021007;28;20021;-80
2022/09/14 12:32:55;;;;;;;2.22;1.73;;;;;;;;;;5009414;28;20025;-79
2022/09/14 12:35:34;;;;;;;10.57;8.20;;;;;;;;;;5023169;28;20049;-80
2022/09/14 12:38:20;;;;;;;2.63;1.70;;;;;;;;;;5020545;28;20678;-79
2022/09/14 12:40:46;;;;;;;2.15;1.23;;;;;;;;;;5021238;28;20026;-80
2022/09/14 12:43:35;;;;;;;1.75;1.30;;;;;;;;;;5021371;28;20029;-80
2022/09/14 12:46:01;;;;;;;1.45;1.30;;;;;;;;;;5019029;28;20022;-80
2022/09/14 12:51:30;;;;;;;2.70;1.70;;;;;;;;;;5017549;28;20109;-78
2022/09/14 12:53:59;;;;;;;3.50;2.00;;;;;;;;;;5014696;28;20088;-79
2022/09/14 12:56:26;;;;;;;2.90;1.42;;;;;;;;;;5011442;28;20026;-78
2022/09/14 12:59:02;;;;;;;6.10;5.10;;;;;;;;;;5011744;28;20107;-79
2022/09/14 13:01:28;;;;;;;1.42;1.33;;;;;;;;;;5012484;28;20054;-77
2022/09/14 13:03:55;;;;;;;4.50;3.42;;;;;;;;;;4993911;28;20164;-79
2022/09/14 13:06:22;;;;;;;6.95;6.28;;;;;;;;;;5013771;28;20026;-79
2022/09/14 13:08:58;;;;;;;3.08;2.53;;;;;;;;;;5007305;28;20047;-79
2022/09/14 13:11:28;;;;;;;6.35;5.47;;;;;;;;;;4998963;28;20033;-78
2022/09/14 13:13:55;;;;;;;6.32;3.63;;;;;;;;;;5006837;28;20100;-78
2022/09/14 13:16:30;;;;;;;2.78;1.70;;;;;;;;;;5011189;28;20037;-78
2022/09/14 13:19:04;;;;;;;4.32;2.22;;;;;;;;;;5005484;28;20025;-81
2022/09/14 13:21:30;;;;;;;;;;;;;;;;;;5001640;28;20032;-78
2022/09/14 13:23:56;;;;;;;4.80;1.88;;;;;;;;;;5021118;28;19992;-81
2022/09/14 13:26:26;;;;;;;2.92;1.67;;;;;;;;;;5017334;28;20029;-80
2022/09/14 13:28:53;;;;;;;1.88;1.52;;;;;;;;;;5015735;28;20034;-81
2022/09/14 13:31:36;;;;;;;1.88;1.75;;;;;;;;;;5024713;28;20026;-82
2022/09/14 13:34:04;;;;;;;2.75;1.80;;;;;;;;;;5015534;28;20390;-82
2022/09/14 13:36:31;;;;;;;3.38;1.58;;;;;;;;;;5012955;28;20021;-78
2022/09/14 13:39:02;;;;;;;3.20;1.95;;;;;;;;;;4994947;28;20465;-80
2022/09/14 13:41:29;;;;;;;3.60;2.30;;;;;;;;;;5013787;28;20026;-81
2022/09/14 13:43:56;;;;;;;2.22;1.30;;;;;;;;;;5012656;28;20026;-80
2022/09/14 13:46:41;;;;;;;2.92;1.85;;;;;;;;;;5013106;28;20030;-79
2022/09/14 13:49:07;;;;;;;3.35;1.70;;;;;;;;;;5019482;28;20025;-81
2022/09/14 13:51:34;;;;;;;3.40;2.42;;;;;;;;;;5033132;28;20481;-82
2022/09/14 13:54:16;;;;;;;8.88;6.57;;;;;;;;;;5027994;28;20049;-82
2022/09/14 13:56:42;;;;;;;5.57;2.35;;;;;;;;;;5012200;28;20366;-81
2022/09/14 13:59:11;;;;;;;4.50;3.33;;;;;;;;;;5013743;28;20021;-81
2022/09/14 14:01:40;;;;;;;4.20;2.80;;;;;;;;;;5013594;28;20018;-80
2022/09/14 14:04:18;;;;;;;3.97;2.08;;;;;;;;;;5012767;28;20022;-82
2022/09/14 14:06:44;;;;;;;2.28;1.60;;;;;;;;;;5005686;28;20089;-81
2022/09/14 14:09:11;;;;;;;2.67;1.70;;;;;;;;;;5002062;28;20065;-82
2022/09/14 14:11:39;;;;;;;2.47;1.77;;;;;;;;;;5012934;28;20104;-80
2022/09/14 14:14:12;;;;;;;4.35;1.98;;;;;;;;;;5008161;28;20034;-81
2022/09/14 14:16:38;;;;;;;1.77;1.65;;;;;;;;;;4993615;28;20030;-80
2022/09/14 14:19:05;;;;;;;2.53;1.83;;;;;;;;;;5003523;28;20029;-80
2022/09/14 14:21:32;;;;;;;2.55;1.33;;;;;;;;;;5012768;28;20469;-81
2022/09/14 14:24:18;;;;;;;2.20;1.50;;;;;;;;;;5011354;28;20030;-81
2022/09/14 14:26:51;;;;;;;2.40;1.88;;;;;;;;;;5012098;28;20041;-80
2022/09/14 14:29:18;;;;;;;3.05;1.88;;;;;;;;;;5012718;28;20045;-80
2022/09/14 14:31:44;;;;;;;3.00;1.90;;;;;;;;;;5012162;28;20061;-80
2022/09/14 14:34:17;;;;;;;3.17;1.83;;;;;;;;;;5011692;28;20050;-81
2022/09/14 14:36:43;;;;;;;2.80;1.70;;;;;;;;;;5012507;28;20571;-81
2022/09/14 14:39:09;;;;;;;2.33;1.58;;;;;;;;;;5012695;28;20148;-81
2022/09/14 14:41:36;;;;;;;3.63;1.75;;;;;;;;;;5012452;28;20029;-81
2022/09/14 14:44:03;;;;;;;1.95;1.65;;;;;;;;;;5011654;28;20037;-81
2022/09/14 14:46:29;;;;;;;1.50;1.30;;;;;;;;;;5012466;28;20068;-81
2022/09/14 14:48:55;;;;;;;2.60;1.58;;;;;;;;;;5012373;28;20473;-81
2022/09/14 14:51:21;;;;;;;2.97;1.45;;;;;;;;;;5012534;28;20029;-81
2022/09/14 14:53:47;;;;;;;1.70;1.20;;;;;;;;;;5011063;28;20057;-81
2022/09/14 14:56:13;;;;;;;2.35;1.52;;;;;;;;;;5014592;28;20481;-81
2022/09/14 14:58:46;;;;;;;1.40;1.15;;;;;;;;;;5016677;28;20068;-80
2022/09/14 15:01:12;;;;;;;1.23;1.08;;;;;;;;;;5016887;28;20076;-81